Time;durP1;ratioP1;P1;durP2;ratioP2;P2;SDS_P1;SDS_P2;PMS_P1;PMS_P2;Temp;Humidity;BMP_temperature;BMP_pressure;BME280_temperature;BME280_humidity;BME280_pressure;Samples;Min_cycle;Max_cycle;Signal;HPM_P1;HPM_P2
2022/05/20 00:01:16;;;;;;;3.80;3.50;;;19.60;99.90;;;19.82;64.42;101220.28;5009898;28;20423;-70
2022/05/20 00:03:45;;;;;;;3.00;2.67;;;19.60;99.90;;;19.73;65.13;101227.31;5009211;28;20433;-70
2022/05/20 00:06:13;;;;;;;3.90;3.10;;;19.50;99.90;;;19.72;65.14;101231.16;5010177;28;20407;-71
2022/05/20 00:08:43;;;;;;;3.03;2.83;;;19.50;99.90;;;19.69;65.28;101231.66;5010120;28;20475;-71
2022/05/20 00:11:13;;;;;;;3.40;2.93;;;19.50;99.90;;;19.59;65.90;101234.28;5012225;28;20457;-71
2022/05/20 00:13:43;;;;;;;4.13;2.70;;;19.40;99.90;;;19.53;65.89;101247.91;5013293;28;20434;-71
2022/05/20 00:16:12;;;;;;;5.87;3.00;;;19.30;99.90;;;19.45;66.41;101236.56;5013848;28;20452;-71
2022/05/20 00:18:41;;;;;;;2.97;2.67;;;19.30;99.90;;;19.44;66.60;101252.19;5013515;28;20483;-71
2022/05/20 00:21:10;;;;;;;3.43;2.63;;;19.30;99.90;;;19.38;66.84;101247.66;5013204;28;20454;-71
2022/05/20 00:23:39;;;;;;;3.90;2.70;;;19.20;99.90;;;19.33;66.79;101244.00;5012987;28;20966;-71
2022/05/20 00:26:07;;;;;;;4.60;2.93;;;19.20;99.90;;;19.29;67.14;101249.19;5014161;28;20425;-71
2022/05/20 00:28:38;;;;;;;4.93;3.43;;;19.10;99.90;;;19.20;67.37;101255.34;5012449;28;20432;-70
2022/05/20 00:31:12;;;;;;;3.83;3.40;;;19.10;99.90;;;19.26;67.62;101263.41;5013929;28;20456;-72
2022/05/20 00:33:42;;;;;;;2.93;2.67;;;19.00;99.90;;;19.25;67.43;101253.50;5013081;28;20460;-71
2022/05/20 00:36:10;;;;;;;4.23;3.20;;;19.00;99.90;;;19.18;67.93;101258.31;5013312;28;20449;-71
2022/05/20 00:38:40;;;;;;;5.07;2.60;;;19.00;99.90;;;19.13;68.29;101258.25;5013504;28;20433;-71
2022/05/20 00:41:10;;;;;;;3.60;3.10;;;18.90;99.90;;;19.05;68.46;101258.66;5013672;28;20448;-70
2022/05/20 00:43:43;;;;;;;3.43;2.83;;;18.90;99.90;;;19.03;68.42;101250.69;5013171;28;20435;-70
2022/05/20 00:46:16;;;;;;;3.77;2.63;;;18.90;99.90;;;19.02;68.90;101254.53;5013055;28;20429;-70
2022/05/20 00:48:45;;;;;;;3.57;3.23;;;18.90;99.90;;;18.97;68.92;101251.69;5013419;28;20439;-71
2022/05/20 00:51:21;;;;;;;2.63;2.40;;;18.80;99.90;;;18.93;69.19;101260.63;5013242;28;21010;-71
2022/05/20 00:53:57;;;;;;;3.53;3.20;;;18.80;99.90;;;18.89;69.76;101264.97;5013752;28;20858;-71
2022/05/20 00:56:31;;;;;;;3.97;3.10;;;18.70;99.90;;;18.79;69.94;101260.13;5013072;28;20498;-71
2022/05/20 00:59:05;;;;;;;4.03;3.67;;;18.70;99.90;;;18.78;69.83;101257.66;5013483;28;20420;-71
2022/05/20 01:01:34;;;;;;;3.77;3.20;;;18.60;99.90;;;18.69;70.22;101268.19;5021274;28;20423;-71
2022/05/20 01:04:05;;;;;;;4.67;3.50;;;18.50;99.90;;;18.75;70.12;101263.63;5017319;28;20449;-72
2022/05/20 01:06:34;;;;;;;3.30;3.00;;;18.50;99.90;;;18.61;70.51;101277.66;5018914;28;20429;-71
2022/05/20 01:09:04;;;;;;;3.20;2.70;;;18.50;99.90;;;18.56;70.75;101276.72;5017351;28;20428;-70
2022/05/20 01:11:33;;;;;;;8.70;3.80;;;18.40;99.90;;;18.55;70.86;101278.63;5018065;28;20474;-70
2022/05/20 01:14:03;;;;;;;5.10;2.47;;;18.40;99.90;;;18.48;71.11;101275.19;5013184;28;21053;-71
2022/05/20 01:16:34;;;;;;;6.10;3.17;;;18.30;99.90;;;18.52;71.14;101283.75;5013886;28;20384;-71
2022/05/20 01:19:06;;;;;;;6.03;3.27;;;18.30;99.90;;;18.50;71.37;101289.44;5014287;28;20923;-71
2022/05/20 01:21:35;;;;;;;8.70;3.20;;;18.30;99.90;;;18.46;71.44;101296.50;5014128;28;20460;-71
2022/05/20 01:24:06;;;;;;;5.07;3.30;;;18.30;99.90;;;18.40;71.88;101292.00;5013299;28;20818;-71
2022/05/20 01:26:35;;;;;;;4.43;3.20;;;18.20;99.90;;;18.29;72.44;101292.06;5012387;28;20799;-73
2022/05/20 01:29:04;;;;;;;3.33;3.03;;;;;;;18.30;72.79;101294.53;5012175;28;20448;-70
2022/05/20 01:31:33;;;;;;;4.13;3.30;;;18.10;99.90;;;18.24;73.04;101290.88;5011136;28;20465;-71
2022/05/20 01:34:02;;;;;;;4.27;3.60;;;18.00;99.90;;;18.22;73.06;101294.94;5012151;28;20503;-71
2022/05/20 01:36:31;;;;;;;4.47;4.07;;;18.00;99.90;;;18.10;73.58;101299.63;5013048;28;20981;-71
2022/05/20 01:39:00;;;;;;;6.90;4.47;;;;;;;18.09;73.78;101308.91;5011502;28;20820;-71
2022/05/20 01:41:39;;;;;;;5.60;4.53;;;17.90;99.90;;;18.12;73.84;101309.25;5012779;28;20855;-71
2022/05/20 01:44:15;;;;;;;5.60;4.57;;;17.90;99.90;;;18.11;74.00;101304.00;5013655;28;20471;-71
2022/05/20 01:46:55;;;;;;;4.23;3.80;;;17.90;99.90;;;18.13;73.97;101318.28;5014845;28;20768;-71
2022/05/20 01:49:40;;;;;;;8.63;5.40;;;17.90;99.90;;;18.07;74.05;101322.81;5012931;28;20421;-70
2022/05/20 01:52:19;;;;;;;5.77;5.20;;;17.90;99.90;;;17.99;74.43;101341.53;5015394;28;20882;-71
2022/05/20 01:55:00;;;;;;;6.60;5.17;;;17.80;99.90;;;17.88;74.76;101334.16;5016362;28;20443;-71
2022/05/20 01:57:37;;;;;;;7.67;6.80;;;;;;;17.81;75.22;101335.13;5018420;28;20504;-71
2022/05/20 02:00:11;;;;;;;8.33;6.20;;;;;;;17.84;75.46;101332.97;5023423;28;20456;-71
2022/05/20 02:02:46;;;;;;;6.20;5.60;;;;;;;17.95;74.94;101343.09;5025227;28;20443;-71
2022/05/20 02:05:22;;;;;;;8.33;5.77;;;;;;;18.02;74.64;101335.56;5028329;28;20576;-70
2022/05/20 02:07:58;;;;;;;7.33;5.23;;;;;;;18.07;74.51;101341.16;5020468;28;20483;-71
2022/05/20 02:10:35;;;;;;;6.00;5.50;;;;;;;18.03;74.74;101331.78;5016576;28;20800;-73
2022/05/20 02:13:08;;;;;;;8.70;6.20;;;;;;;18.11;74.67;101342.34;5015869;28;20843;-71
2022/05/20 02:15:41;;;;;;;7.20;5.70;;;;;;;18.00;75.01;101349.53;5013268;28;20468;-71
2022/05/20 02:18:15;;;;;;;7.00;6.30;;;;;;;17.93;75.21;101343.31;5013204;28;20400;-71
2022/05/20 02:20:49;;;;;;;9.90;7.27;;;;;;;17.97;75.01;101332.72;5012625;28;20445;-70
2022/05/20 02:23:22;;;;;;;7.93;7.23;;;;;;;18.10;74.79;101349.75;5011590;28;20429;-71
2022/05/20 02:25:55;;;;;;;8.03;6.90;;;;;;;18.03;74.80;101343.56;5011397;28;20428;-71
2022/05/20 02:28:29;;;;;;;8.73;7.80;;;;;;;18.08;74.56;101351.06;5011651;28;20403;-71
2022/05/20 02:30:59;;;;;;;9.60;7.00;;;;;;;18.12;74.52;101346.75;5011437;28;20445;-70
2022/05/20 02:33:29;;;;;;;6.73;6.23;;;;;;;18.18;74.55;101356.75;5011255;28;20599;-71
2022/05/20 02:36:03;;;;;;;12.37;7.20;;;;;;;18.04;75.05;101338.91;5011605;28;20912;-70
2022/05/20 02:38:32;;;;;;;9.13;7.10;;;;;;;18.09;74.90;101349.97;5011308;28;20429;-70
2022/05/20 02:41:02;;;;;;;7.73;7.03;;;;;;;18.02;75.10;101352.00;5011125;28;20915;-70
2022/05/20 02:43:32;;;;;;;10.03;7.23;;;;;;;18.00;75.13;101335.84;5011269;28;20503;-70
2022/05/20 02:46:02;;;;;;;8.73;7.83;;;;;;;17.94;75.31;101334.06;5011484;28;20787;-71
2022/05/20 02:48:31;;;;;;;8.20;7.47;;;;;;;17.92;75.60;101338.09;5011472;28;20491;-70
2022/05/20 02:51:00;;;;;;;9.27;7.97;;;;;;;17.86;75.66;101347.28;5009598;28;20619;-71
2022/05/20 02:53:29;;;;;;;9.03;7.57;;;;;;;17.93;75.46;101347.97;5010750;28;20421;-72
2022/05/20 02:55:59;;;;;;;9.20;8.30;;;;;;;17.89;75.64;101349.53;5010335;28;20669;-70
2022/05/20 03:04:13;;;;;;;8.60;7.70;;;;;;;17.85;76.14;101360.13;4986704;28;20433;-71
2022/05/20 03:06:44;;;;;;;8.47;7.67;;;;;;;17.94;76.17;101366.06;5012932;28;20436;-71
2022/05/20 03:09:15;;;;;;;8.27;6.80;;;;;;;17.98;76.14;101361.78;5011376;28;20420;-71
2022/05/20 03:11:45;;;;;;;9.60;7.47;;;;;;;18.03;76.15;101360.00;5010280;28;20444;-71
2022/05/20 03:14:16;;;;;;;8.20;7.07;;;;;;;18.15;75.38;101360.78;5010334;28;21107;-72
2022/05/20 03:16:47;;;;;;;8.20;7.40;;;;;;;18.14;75.68;101378.31;5010714;28;20413;-71
2022/05/20 03:19:16;;;;;;;7.50;6.77;;;;;;;18.17;75.69;101380.56;5010341;28;20407;-71
2022/05/20 03:21:45;;;;;;;9.50;7.30;;;;;;;18.11;75.69;101383.44;5010017;28;20496;-72
2022/05/20 03:24:15;;;;;;;7.20;6.60;;;;;;;18.11;75.77;101384.25;5010099;28;20413;-71
2022/05/20 03:26:44;;;;;;;10.17;6.30;;;;;;;18.17;75.36;101377.00;5010670;28;20418;-72
2022/05/20 03:29:13;;;;;;;7.90;7.17;;;;;;;18.20;75.03;101384.75;5010325;28;20858;-71
2022/05/20 03:31:42;;;;;;;6.40;5.80;;;;;;;18.23;74.58;101390.56;5009742;28;20456;-70
2022/05/20 03:34:13;;;;;;;8.90;6.10;;;;;;;18.11;74.93;101378.78;5010503;28;20468;-71
2022/05/20 03:36:43;;;;;;;7.03;6.33;;;;;;;18.20;74.71;101382.81;5011376;28;20405;-72
2022/05/20 03:39:15;;;;;;;8.97;8.07;;;;;;;18.18;74.74;101378.66;5010240;28;20508;-72
2022/05/20 03:41:45;;;;;;;8.77;7.77;;;;;;;18.20;74.63;101379.28;5010110;28;20445;-72
2022/05/20 03:44:16;;;;;;;9.77;8.10;;;;;;;18.21;74.79;101384.50;5011182;28;20392;-72
2022/05/20 03:46:47;;;;;;;8.93;7.40;;;;;;;18.30;74.59;101384.94;5014332;28;20475;-71
2022/05/20 03:49:18;;;;;;;8.93;8.03;;;;;;;18.35;74.53;101382.31;5014218;28;20413;-72
2022/05/20 03:51:49;;;;;;;7.60;6.90;;;;;;;18.19;74.93;101381.19;5014214;28;20499;-72
2022/05/20 03:54:20;;;;;;;7.73;6.80;;;;;;;18.24;75.00;101391.41;5013721;28;20895;-73
2022/05/20 03:56:49;;;;;;;7.80;6.33;;;;;;;18.35;74.64;101390.53;5014890;28;20417;-71
2022/05/20 03:59:18;;;;;;;7.80;6.20;;;18.00;99.90;;;18.39;74.40;101385.44;5014364;28;20487;-72
2022/05/20 04:01:58;;;;;;;7.27;6.50;;;;;;;18.39;74.32;101385.44;5015191;28;20594;-72
2022/05/20 04:04:32;;;;;;;8.47;6.90;;;;;;;18.29;74.51;101385.19;5016199;28;20427;-71
2022/05/20 04:07:03;;;;;;;8.80;7.13;;;18.10;99.90;;;18.42;74.02;101393.16;5015495;28;20498;-71
2022/05/20 04:09:32;;;;;;;9.63;7.80;;;;;;;18.46;73.80;101403.38;5013483;28;20475;-71
2022/05/20 04:12:05;;;;;;;8.27;7.40;;;;;;;18.47;73.78;101399.56;5013685;28;20467;-71
2022/05/20 04:14:35;;;;;;;9.07;6.90;;;;;;;18.43;73.73;101397.56;5013396;28;20895;-72
2022/05/20 04:17:05;;;;;;;6.80;6.10;;;;;;;18.40;74.06;101398.88;5013350;28;20902;-71
2022/05/20 04:19:36;;;;;;;7.73;6.90;;;;;;;18.47;73.87;101401.47;5012290;28;20400;-72
2022/05/20 04:22:09;;;;;;;8.73;7.93;;;;;;;18.45;73.91;101401.72;5013380;28;20445;-72
2022/05/20 04:24:38;;;;;;;9.43;7.50;;;;;;;18.43;74.02;101398.41;5013079;28;20436;-72
2022/05/20 04:27:08;;;;;;;9.93;8.43;;;;;;;18.42;74.01;101399.47;5013422;28;20392;-71
2022/05/20 04:29:37;;;;;;;10.57;9.57;;;;;;;18.39;73.95;101402.69;5013346;28;20409;-71
2022/05/20 04:32:07;;;;;;;14.60;8.63;;;;;;;18.53;73.65;101404.13;5013221;28;20419;-71
2022/05/20 04:34:37;;;;;;;13.07;8.80;;;18.20;99.90;;;18.53;73.50;101403.25;5013028;28;20417;-70
2022/05/20 04:37:07;;;;;;;8.53;7.50;;;;;;;18.58;72.97;101406.13;5013460;28;20412;-71
2022/05/20 04:39:36;;;;;;;9.40;8.40;;;18.10;99.90;;;18.62;72.87;101410.88;5012133;28;20404;-72
2022/05/20 04:47:38;;;;;;;10.93;7.13;;;18.30;99.90;;;18.56;73.56;101419.25;4991897;28;20460;-72
2022/05/20 04:50:10;;;;;;;8.00;7.20;;;18.30;99.90;;;18.73;73.04;101422.06;5012630;28;20403;-72
2022/05/20 04:52:39;;;;;;;10.50;9.00;;;;;;;18.91;72.32;101422.72;5012691;28;20380;-71
2022/05/20 04:55:08;;;;;;;7.60;6.90;;;18.50;99.90;;;19.24;71.53;101421.97;5012424;28;21000;-72
2022/05/20 04:57:44;;;;;;;10.90;8.97;;;18.70;99.90;;;19.36;70.57;101430.13;5011682;28;20941;-71
2022/05/20 05:00:18;;;;;;;10.53;7.87;;;18.90;99.90;;;19.41;70.51;101425.53;5012532;28;20436;-71
2022/05/20 05:02:48;;;;;;;7.83;6.83;;;18.90;99.90;;;19.60;69.87;101422.63;5012289;28;20918;-75
2022/05/20 05:05:22;;;;;;;9.77;8.77;;;19.10;99.90;;;19.64;69.07;101424.63;5012275;28;20413;-71
2022/05/20 05:07:54;;;;;;;9.43;8.50;;;19.20;99.90;;;19.76;68.72;101441.00;5012072;28;20424;-71
2022/05/20 05:10:27;;;;;;;9.13;8.10;;;19.20;99.90;;;19.92;68.26;101442.91;5011833;28;20453;-70
2022/05/20 05:12:56;;;;;;;9.50;8.03;;;19.40;99.90;;;19.99;67.93;101440.84;5012406;28;20392;-70
2022/05/20 05:15:25;;;;;;;11.90;8.67;;;19.50;99.90;;;19.81;68.17;101441.06;5011585;28;20486;-70
2022/05/20 05:20:52;;;;;;;9.97;8.97;;;19.30;99.90;;;20.58;65.73;101438.38;4987153;28;20449;-72
2022/05/20 05:23:22;;;;;;;12.40;11.10;;;19.60;99.90;;;20.76;64.78;101446.34;5012206;28;20396;-72
2022/05/20 05:25:51;;;;;;;11.97;9.50;;;20.00;99.90;;;20.79;64.92;101448.56;5012093;28;20433;-70
2022/05/20 05:28:20;;;;;;;11.53;10.07;;;20.00;99.90;;;20.79;64.98;101446.66;5012203;28;20495;-72
2022/05/20 05:30:52;;;;;;;9.37;8.40;;;20.10;99.90;;;20.65;65.23;101452.78;5011900;28;20419;-71
2022/05/20 05:33:22;;;;;;;14.00;9.50;;;20.20;99.90;;;20.41;66.40;101454.09;5012018;28;20743;-72
2022/05/20 05:35:52;;;;;;;13.90;9.97;;;20.00;99.90;;;20.53;65.92;101457.56;5010901;28;20436;-71
2022/05/20 05:38:25;;;;;;;13.87;10.90;;;20.00;99.90;;;20.66;65.42;101457.22;5011210;28;20816;-72
2022/05/20 05:40:54;;;;;;;13.50;11.87;;;20.10;99.90;;;20.86;64.57;101454.72;5011447;28;20728;-73
2022/05/20 05:43:23;;;;;;;12.43;11.13;;;20.20;99.90;;;20.49;65.01;101457.25;5011273;28;20487;-72
2022/05/20 05:45:52;;;;;;;10.00;9.00;;;20.10;99.90;;;20.69;65.16;101457.53;5011259;28;20806;-72
2022/05/20 05:48:22;;;;;;;12.00;10.80;;;20.10;99.90;;;20.76;64.83;101457.34;5011255;28;20399;-72
2022/05/20 05:50:52;;;;;;;11.80;8.60;;;20.20;99.90;;;20.51;65.65;101462.50;5011112;28;20427;-73
2022/05/20 05:53:24;;;;;;;11.97;10.37;;;20.10;99.90;;;20.74;64.78;101462.25;5010338;28;20499;-71
2022/05/20 05:55:58;;;;;;;10.33;9.20;;;20.20;99.90;;;20.76;64.85;101462.84;5009354;28;20448;-73
2022/05/20 05:58:29;;;;;;;11.83;10.37;;;20.20;99.90;;;20.66;64.94;101463.53;5009646;28;20825;-72
2022/05/20 06:00:59;;;;;;;10.63;8.80;;;20.30;99.90;;;20.66;64.94;101469.03;5008305;28;20506;-73
2022/05/20 06:03:28;;;;;;;11.10;9.03;;;20.20;99.90;;;20.89;63.98;101467.94;5011454;28;20421;-71
2022/05/20 06:05:58;;;;;;;10.67;9.27;;;20.30;99.90;;;21.15;63.38;101466.34;5011490;28;20421;-72
2022/05/20 06:08:27;;;;;;;11.70;9.80;;;20.50;99.90;;;20.97;62.91;101474.91;5010636;28;20800;-73
2022/05/20 06:11:01;;;;;;;11.57;10.00;;;20.60;99.90;;;21.01;63.07;101476.06;5008789;28;20431;-72
2022/05/20 06:13:31;;;;;;;10.63;9.63;;;20.60;99.90;;;21.19;62.38;101479.34;5011345;28;20930;-71
2022/05/20 06:16:00;;;;;;;10.33;8.50;;;20.60;99.90;;;21.16;62.84;101474.34;5008001;28;20513;-72
2022/05/20 06:18:29;;;;;;;11.27;10.10;;;20.60;99.90;;;20.85;63.44;101476.97;5010494;28;20433;-72
2022/05/20 06:21:00;;;;;;;9.80;8.90;;;20.50;99.90;;;21.06;62.94;101478.84;5010792;28;20427;-72
2022/05/20 06:23:29;;;;;;;14.33;10.60;;;20.60;99.90;;;20.71;62.76;101480.09;5011635;28;20448;-72
2022/05/20 06:25:59;;;;;;;11.57;10.37;;;20.50;99.90;;;21.16;61.76;101468.00;5011459;28;20418;-73
2022/05/20 06:28:44;;;;;;;12.00;9.07;;;20.60;99.90;;;20.99;59.85;101481.00;5010998;28;20408;-72
2022/05/20 06:31:13;;;;;;;10.60;8.87;;;20.60;99.90;;;20.62;60.08;101478.06;5011657;28;20547;-72
2022/05/20 06:33:42;;;;;;;9.37;8.23;;;20.40;99.50;;;20.82;59.59;101472.78;5012112;28;20478;-72
2022/05/20 06:41:46;;;;;;;10.30;9.30;;;20.70;96.30;;;20.71;59.91;101465.53;5011862;28;20452;-73
2022/05/20 06:44:15;;;;;;;9.70;7.40;;;20.60;97.00;;;20.71;60.74;101479.28;5011883;28;21015;-71
2022/05/20 06:46:44;;;;;;;9.50;8.60;;;20.40;99.90;;;20.14;62.05;101468.53;5013083;28;20436;-73
2022/05/20 06:49:14;;;;;;;8.93;7.93;;;20.00;99.90;;;20.64;60.86;101471.19;5017989;28;20384;-73
2022/05/20 06:51:44;;;;;;;9.50;8.53;;;20.20;99.90;;;21.01;60.24;101470.56;5028274;28;20445;-73
2022/05/20 06:54:13;;;;;;;13.30;8.53;;;20.50;99.90;;;21.48;59.06;101462.56;5029761;28;20886;-73
2022/05/20 06:56:44;;;;;;;9.47;7.73;;;20.80;99.90;;;21.86;58.07;101462.34;5029921;28;20471;-75
2022/05/20 06:59:15;;;;;;;11.07;7.83;;;21.10;98.40;;;21.72;57.37;101461.13;5020547;28;20428;-74
2022/05/20 07:01:44;;;;;;;9.70;8.80;;;21.30;90.30;;;21.45;58.09;101460.31;5025401;28;20468;-72
2022/05/20 07:04:33;;;;;;;9.23;8.40;;;21.20;90.30;;;21.21;58.88;101455.13;5023694;28;20520;-73
2022/05/20 07:07:06;;;;;;;8.90;8.00;;;21.00;92.40;;;21.46;58.83;101461.97;5028823;28;20407;-72
2022/05/20 07:09:36;;;;;;;8.93;8.13;;;21.00;94.00;;;21.65;58.22;101460.50;5022004;28;21030;-71
2022/05/20 07:12:06;;;;;;;10.57;8.23;;;21.20;92.20;;;21.48;58.18;101465.31;5010941;28;20431;-74
2022/05/20 07:14:35;;;;;;;9.83;8.83;;;21.10;91.40;;;21.51;58.30;101470.28;5008424;28;21028;-72
2022/05/20 07:17:04;;;;;;;10.97;8.53;;;21.10;93.00;;;21.13;59.89;101463.84;5009324;28;20454;-73
2022/05/20 07:19:33;;;;;;;11.23;8.67;;;20.80;94.70;;;20.94;60.62;101461.66;5011084;28;20395;-71
2022/05/20 07:22:04;;;;;;;12.33;8.77;;;20.70;97.40;;;21.22;59.40;101464.22;5013553;28;20509;-72
2022/05/20 07:24:33;;;;;;;9.83;8.33;;;20.80;96.00;;;21.51;57.65;101462.03;5009200;28;20408;-73
2022/05/20 07:27:02;;;;;;;8.50;7.60;;;21.10;89.50;;;21.40;57.63;101466.59;5013899;28;20432;-72
2022/05/20 07:29:32;;;;;;;7.27;6.60;;;21.10;83.70;;;21.86;56.94;101461.53;5012114;28;20496;-71
2022/05/20 07:32:01;;;;;;;7.73;6.93;;;21.30;86.80;;;21.96;54.89;101443.19;5011792;28;20427;-72
2022/05/20 07:34:30;;;;;;;6.80;6.03;;;21.40;70.50;;;22.46;54.79;101450.13;5014672;28;20411;-72
2022/05/20 07:36:59;;;;;;;6.67;6.03;;;21.80;68.70;;;22.69;54.17;101457.13;5012628;28;20859;-73
2022/05/20 07:39:29;;;;;;;8.00;7.20;;;22.10;60.60;;;21.94;54.66;101452.78;5014505;28;20526;-73
2022/05/20 07:41:59;;;;;;;11.87;6.93;;;21.90;53.20;;;22.06;55.15;101450.69;5013844;28;20443;-72
2022/05/20 07:44:28;;;;;;;6.43;5.80;;;21.70;56.30;;;22.35;54.87;101453.91;5013536;28;20433;-72
2022/05/20 07:46:57;;;;;;;6.63;6.03;;;21.80;55.80;;;23.04;52.51;101449.00;5014223;28;20407;-73
2022/05/20 07:49:26;;;;;;;6.37;5.70;;;22.30;51.70;;;22.25;52.33;101448.31;5014223;28;20450;-73
2022/05/20 07:51:57;;;;;;;5.07;4.57;;;22.10;42.80;;;21.89;53.57;101452.72;5014173;28;20791;-71
2022/05/20 07:54:33;;;;;;;5.90;5.40;;;21.70;45.00;;;22.24;53.29;101452.16;5014134;28;20429;-72
2022/05/20 07:57:07;;;;;;;6.10;5.60;;;21.80;47.10;;;22.76;52.45;101455.78;5014234;28;20430;-73
2022/05/20 07:59:45;;;;;;;6.97;5.37;;;22.10;46.00;;;22.72;52.42;101454.66;5014273;28;20434;-72
2022/05/20 08:02:18;;;;;;;5.27;4.67;;;22.30;43.70;;;22.62;52.19;101460.09;5013587;28;20506;-72
2022/05/20 08:04:57;;;;;;;9.53;5.33;;;22.20;41.30;;;22.65;51.97;101458.75;5013827;28;20430;-71
2022/05/20 08:07:32;;;;;;;4.97;4.57;;;22.30;41.10;;;22.79;51.27;101454.44;5014429;28;20399;-72
2022/05/20 08:10:07;;;;;;;6.17;5.57;;;22.30;39.10;;;22.53;50.92;101450.69;5014416;28;20585;-73
2022/05/20 08:12:36;;;;;;;9.00;5.93;;;22.30;35.50;;;22.68;50.92;101453.53;5013448;28;20418;-72
2022/05/20 08:15:07;;;;;;;6.53;5.00;;;22.30;36.20;;;22.82;50.22;101457.47;5013858;28;20487;-72
2022/05/20 08:17:40;;;;;;;6.73;5.10;;;22.40;35.40;;;23.08;49.68;101457.56;5013533;28;20990;-72
2022/05/20 08:20:13;;;;;;;4.70;4.30;;;22.50;35.70;;;22.94;49.88;101469.13;5013781;28;20380;-72
2022/05/20 08:22:42;;;;;;;6.30;5.70;;;22.60;34.50;;;22.54;50.66;101463.38;5013551;28;20404;-72
2022/05/20 08:25:13;;;;;;;4.73;4.33;;;22.40;34.50;;;23.11;49.74;101468.06;5014288;28;20494;-71
2022/05/20 08:27:42;;;;;;;5.70;5.10;;;22.60;34.90;;;22.73;50.15;101458.25;5013874;28;20429;-72
2022/05/20 08:30:16;;;;;;;4.70;4.30;;;22.50;32.80;;;22.75;50.34;101454.13;5013177;28;20436;-72
2022/05/20 08:32:45;;;;;;;6.63;6.03;;;22.50;33.30;;;22.29;51.09;101454.97;5013152;28;20871;-72
2022/05/20 08:35:14;;;;;;;6.83;6.23;;;22.20;33.10;;;22.17;52.05;101446.06;5013965;28;20483;-72
2022/05/20 08:37:47;;;;;;;5.80;5.30;;;22.10;34.90;;;22.10;52.16;101436.09;5013859;28;20472;-74
2022/05/20 08:40:24;;;;;;;5.90;4.73;;;21.90;36.60;;;22.09;51.01;101439.94;5014051;28;20508;-72
2022/05/20 08:42:56;;;;;;;5.00;4.50;;;21.90;34.20;;;22.04;51.72;101442.69;5013773;28;20396;-74
2022/05/20 08:45:30;;;;;;;5.10;4.70;;;21.80;35.70;;;21.92;51.92;101438.44;5014281;28;20511;-73
2022/05/20 08:47:59;;;;;;;5.50;4.93;;;21.70;36.60;;;22.31;50.31;101439.00;5013170;28;20404;-73
2022/05/20 08:50:37;;;;;;;7.53;4.63;;;22.00;33.80;;;22.74;49.27;101438.69;5013189;28;20449;-73
2022/05/20 08:53:14;;;;;;;5.07;3.87;;;22.30;31.40;;;22.76;48.87;101444.75;5013494;28;20913;-74
2022/05/20 08:55:44;;;;;;;4.20;3.80;;;22.40;30.10;;;23.24;48.19;101450.97;5013140;28;20415;-72
2022/05/20 08:58:20;;;;;;;7.03;4.63;;;22.60;30.00;;;23.08;48.53;101443.75;5013160;28;20479;-72
2022/05/20 09:00:51;;;;;;;5.17;4.50;;;22.70;29.10;;;23.70;46.92;101438.91;5013049;28;20945;-72
2022/05/20 09:03:22;;;;;;;5.03;4.47;;;23.10;28.00;;;23.69;47.27;101434.47;5013929;28;20426;-72
2022/05/20 09:06:03;;;;;;;6.30;5.43;;;23.30;27.30;;;23.26;47.62;101443.25;5017125;28;20400;-74
2022/05/20 09:08:33;;;;;;;5.03;4.50;;;23.20;25.70;;;23.46;47.79;101434.19;5018132;28;20403;-72
2022/05/20 09:11:12;;;;;;;6.40;4.83;;;23.10;26.90;;;23.10;47.95;101427.75;5014122;28;20424;-72
2022/05/20 09:16:31;;;;;;;4.37;3.97;;;22.80;27.20;;;23.26;48.28;101429.44;5013258;28;20471;-73
2022/05/20 09:19:10;;;;;;;4.63;4.20;;;23.00;26.90;;;23.16;48.26;101435.78;5013078;28;20543;-74
2022/05/20 09:21:42;;;;;;;4.10;3.70;;;22.90;26.70;;;23.26;46.24;101443.25;5015887;28;20423;-73
2022/05/20 09:24:20;;;;;;;4.47;3.33;;;22.90;23.80;;;23.69;45.98;101434.47;5020699;28;20406;-73
2022/05/20 09:27:03;;;;;;;4.20;3.90;;;23.20;24.10;;;23.89;45.43;101424.53;5020461;28;20421;-73
2022/05/20 09:29:37;;;;;;;4.77;4.00;;;23.30;22.70;;;23.28;46.72;101413.44;5017950;28;20500;-74
2022/05/20 09:32:26;;;;;;;4.43;4.03;;;23.20;23.50;;;23.36;46.68;101410.13;5015660;28;20443;-74
2022/05/20 09:35:01;;;;;;;4.90;4.40;;;23.10;22.70;;;23.19;46.52;101404.03;5013300;28;20395;-74
2022/05/20 09:37:35;;;;;;;5.60;3.70;;;23.00;21.60;;;23.63;46.19;101410.72;5012020;28;20443;-73
2022/05/20 09:40:24;;;;;;;6.70;3.27;;;23.20;22.40;;;24.19;45.29;101408.75;5012784;28;20555;-72
2022/05/20 09:43:27;;;;;;;4.23;3.83;;;23.70;21.70;;;23.93;46.00;101407.09;5012132;28;20399;-74
2022/05/20 09:46:06;;;;;;;7.07;5.73;;;23.60;21.30;;;24.17;44.78;101405.44;5012702;28;20411;-72
2022/05/20 09:48:41;;;;;;;6.07;3.67;;;23.70;19.80;;;24.24;44.31;101397.69;5013185;28;20388;-73
2022/05/20 09:51:17;;;;;;;4.60;3.60;;;23.80;18.90;;;24.60;43.99;101386.47;5012343;28;20530;-72
2022/05/20 09:54:12;;;;;;;4.30;3.90;;;24.10;19.10;;;23.99;44.32;101389.41;5014291;28;20410;-72
2022/05/20 09:56:45;;;;;;;3.90;3.60;;;23.90;17.90;;;24.11;44.54;101389.09;5016179;28;20394;-73
2022/05/20 09:59:36;;;;;;;4.03;3.60;;;23.80;18.40;;;24.60;42.67;101381.75;5017082;28;20456;-74
2022/05/20 10:02:12;;;;;;;4.13;3.73;;;24.00;17.20;;;24.48;43.18;101392.34;5016993;28;20449;-73
2022/05/20 10:04:58;;;;;;;4.10;3.50;;;24.10;16.70;;;24.07;43.71;101391.59;5015363;28;20411;-74
2022/05/20 10:07:45;;;;;;;3.27;2.97;;;23.70;17.10;;;23.67;44.16;101386.94;5018003;28;20432;-74
2022/05/20 10:10:28;;;;;;;3.73;3.43;;;23.50;16.70;;;23.87;44.09;101377.00;5024879;28;20396;-74
2022/05/20 10:13:02;;;;;;;4.03;3.50;;;23.60;17.40;;;24.17;44.08;101374.19;5031730;28;20430;-74
2022/05/20 10:15:39;;;;;;;4.40;3.67;;;23.70;17.20;;;24.24;44.17;101372.78;5032958;28;20501;-74
2022/05/20 10:18:27;;;;;;;3.90;3.37;;;23.90;16.90;;;24.19;44.17;101372.81;5026021;28;20441;-73
2022/05/20 10:21:11;;;;;;;6.57;3.63;;;24.00;16.60;;;23.66;43.57;101371.50;5034019;28;20448;-74
2022/05/20 10:23:52;;;;;;;4.37;3.27;;;23.70;15.20;;;23.60;43.54;101367.06;5033312;28;20400;-74
2022/05/20 10:26:38;;;;;;;3.17;2.87;;;23.50;15.10;;;23.92;43.40;101363.13;5033499;28;20442;-73
2022/05/20 10:35:04;;;;;;;4.80;3.40;;;24.30;13.80;;;24.75;39.66;101363.41;5012774;28;20767;-72
2022/05/20 10:38:13;;;;;;;3.67;2.87;;;24.40;11.20;;;24.91;39.63;101357.53;5011932;28;20424;-72
2022/05/20 10:40:58;;;;;;;3.17;2.87;;;24.50;12.10;;;24.99;38.92;101361.63;5015323;28;20431;-72
2022/05/20 10:50:02;;;;;;;4.27;2.77;;;24.50;7.50;;;24.79;38.86;101345.94;4992372;28;20848;-74
2022/05/20 10:53:04;;;;;;;2.83;2.60;;;24.50;8.20;;;24.23;39.88;101360.06;5014300;28;20445;-74
2022/05/20 10:55:52;;;;;;;4.60;3.40;;;24.10;8.80;;;24.58;39.70;101345.25;5009302;28;20435;-73
2022/05/20 10:58:55;;;;;;;3.60;2.70;;;24.20;9.60;;;24.99;39.13;101334.78;5008432;28;20821;-74
2022/05/20 11:01:43;;;;;;;3.37;2.57;;;24.50;9.40;;;24.74;39.55;101345.19;5009188;28;20991;-73
2022/05/20 11:04:44;;;;;;;3.53;2.90;;;24.50;9.50;;;25.01;39.19;101327.03;5009918;28;20421;-73
2022/05/20 11:08:01;;;;;;;2.90;2.70;;;24.50;9.30;;;25.06;37.98;101328.94;5011310;28;20858;-72
2022/05/20 11:11:05;;;;;;;3.87;2.53;;;24.70;8.30;;;24.94;38.67;101320.13;5010892;28;20507;-72
2022/05/20 11:14:02;;;;;;;2.93;2.67;;;24.70;9.10;;;25.16;37.30;101322.47;5009512;28;20438;-73
2022/05/20 11:17:03;;;;;;;3.70;2.90;;;24.80;7.80;;;25.20;37.14;101329.09;5011295;28;20898;-72
2022/05/20 11:20:09;;;;;;;3.30;2.60;;;24.80;5.80;;;25.40;37.13;101318.69;5011507;28;20464;-74
2022/05/20 11:23:33;;;;;;;2.30;1.97;;;25.00;5.60;;;25.37;36.79;101318.41;5011558;28;20410;-74
2022/05/20 11:26:42;;;;;;;2.60;2.27;;;25.00;5.60;;;25.50;37.08;101318.59;5014961;28;20462;-74
2022/05/20 11:29:46;;;;;;;3.33;3.00;;;25.10;6.00;;;25.46;36.53;101288.97;5009716;28;20517;-73
2022/05/20 11:32:33;;;;;;;8.13;2.83;;;25.20;5.60;;;25.14;37.72;101297.00;5014601;28;20431;-73